Time;durP1;ratioP1;P1;durP2;ratioP2;P2;SDS_P1;SDS_P2;PMS_P1;PMS_P2;Temp;Humidity;BMP_temperature;BMP_pressure;BME280_temperature;BME280_humidity;BME280_pressure;Samples;Min_cycle;Max_cycle;Signal;HPM_P1;HPM_P2
2022/06/04 00:01:36;;;;;;;0.10;0.10;;;;;;;;;;5087836;28;20505;-86
2022/06/04 00:04:03;;;;;;;0.65;0.65;;;;;;;;;;5090884;28;20057;-87
2022/06/04 00:06:29;;;;;;;0.10;0.10;;;;;;;;;;5099677;28;20036;-87
2022/06/04 00:08:55;;;;;;;0.10;0.10;;;;;;;;;;5087582;28;20052;-87
2022/06/04 00:16:50;;;;;;;0.10;0.10;;;;;;;;;;5078672;28;20059;-87
2022/06/04 00:19:16;;;;;;;0.10;0.10;;;;;;;;;;5097264;28;20040;-87
2022/06/04 00:21:43;;;;;;;0.10;0.10;;;;;;;;;;5087326;28;20132;-85
2022/06/04 00:24:09;;;;;;;0.15;0.15;;;;;;;;;;5087245;28;20487;-86
2022/06/04 00:26:35;;;;;;;0.10;0.10;;;;;;;;;;5095011;28;20043;-87
2022/06/04 00:29:01;;;;;;;0.10;0.10;;;;;;;;;;5097485;27;20079;-87
2022/06/04 00:31:27;;;;;;;0.20;0.20;;;;;;;;;;5090916;27;20122;-87
2022/06/04 00:33:53;;;;;;;0.10;0.10;;;;;;;;;;5077824;28;20463;-88
2022/06/04 00:36:19;;;;;;;0.10;0.10;;;;;;;;;;5083540;28;20055;-86
2022/06/04 00:38:45;;;;;;;0.85;0.85;;;;;;;;;;5076560;28;20044;-86
2022/06/04 00:41:24;;;;;;;0.10;0.10;;;;;;;;;;5103117;28;20040;-85
2022/06/04 00:43:56;;;;;;;0.75;0.75;;;;;;;;;;5085051;28;20047;-87
2022/06/04 00:46:40;;;;;;;0.00;0.00;;;;;;;;;;5089024;28;20122;-87
2022/06/04 00:49:10;;;;;;;0.10;0.10;;;;;;;;;;5060625;28;20687;-87
2022/06/04 00:51:37;;;;;;;0.00;0.00;;;;;;;;;;5106224;27;20131;-86
2022/06/04 00:54:03;;;;;;;0.00;0.00;;;;;;;;;;5089645;28;20382;-87
2022/06/04 00:56:29;;;;;;;0.10;0.10;;;;;;;;;;5090991;27;20047;-85
2022/06/04 00:58:55;;;;;;;0.10;0.10;;;;;;;;;;5088652;28;20119;-86
2022/06/04 01:01:25;;;;;;;0.10;0.10;;;;;;;;;;5076776;28;20207;-86
2022/06/04 01:03:58;;;;;;;0.10;0.10;;;;;;;;;;5091670;28;20398;-87
2022/06/04 01:06:24;;;;;;;;;;;;;;;;;;5096736;28;20052;-86
2022/06/04 01:08:50;;;;;;;0.15;0.15;;;;;;;;;;5061567;28;20378;-87
2022/06/04 01:11:16;;;;;;;0.10;0.10;;;;;;;;;;5096468;27;20047;-86
2022/06/04 01:13:49;;;;;;;0.10;0.10;;;;;;;;;;5069732;28;20052;-87
2022/06/04 01:16:15;;;;;;;0.17;0.17;;;;;;;;;;5077078;27;20054;-86
2022/06/04 01:18:50;;;;;;;0.20;0.20;;;;;;;;;;5086531;27;20048;-87
2022/06/04 01:21:23;;;;;;;0.10;0.10;;;;;;;;;;5075926;28;20187;-86
2022/06/04 01:24:08;;;;;;;0.10;0.10;;;;;;;;;;5075990;28;20530;-88
2022/06/04 01:26:40;;;;;;;0.15;0.15;;;;;;;;;;5090562;28;20044;-87
2022/06/04 01:29:09;;;;;;;0.00;0.00;;;;;;;;;;5091030;28;20074;-86
2022/06/04 01:31:40;;;;;;;0.38;0.38;;;;;;;;;;5091882;28;20062;-87
2022/06/04 01:34:09;;;;;;;0.00;0.00;;;;;;;;;;5082588;28;20076;-88
2022/06/04 01:36:44;;;;;;;0.10;0.10;;;;;;;;;;5089017;28;21477;-87
2022/06/04 01:39:14;;;;;;;0.30;0.30;;;;;;;;;;5113156;27;20040;-87
2022/06/04 01:41:42;;;;;;;0.00;0.00;;;;;;;;;;5095133;28;20093;-87
2022/06/04 01:44:10;;;;;;;0.10;0.10;;;;;;;;;;5078260;28;20126;-87
2022/06/04 01:46:36;;;;;;;0.10;0.10;;;;;;;;;;5076052;28;20109;-88
2022/06/04 01:49:21;;;;;;;0.10;0.10;;;;;;;;;;5064943;28;20130;-87
2022/06/04 01:51:49;;;;;;;0.00;0.00;;;;;;;;;;5077194;28;20082;-87
2022/06/04 01:54:25;;;;;;;0.00;0.00;;;;;;;;;;5072735;28;20406;-87
2022/06/04 01:56:53;;;;;;;0.00;0.00;;;;;;;;;;5077055;27;20043;-86
2022/06/04 01:59:20;;;;;;;0.00;0.00;;;;;;;;;;5073037;28;20044;-86
2022/06/04 02:01:47;;;;;;;0.00;0.00;;;;;;;;;;5073559;28;20044;-87
2022/06/04 02:04:23;;;;;;;0.10;0.10;;;;;;;;;;5080967;27;20047;-86
2022/06/04 02:09:49;;;;;;;0.10;0.10;;;;;;;;;;5065216;28;20048;-87
2022/06/04 02:12:16;;;;;;;0.20;0.20;;;;;;;;;;5070545;28;20048;-87
2022/06/04 02:14:44;;;;;;;0.00;0.00;;;;;;;;;;5096397;27;20048;-87
2022/06/04 02:17:15;;;;;;;0.10;0.10;;;;;;;;;;5078985;28;20043;-87
2022/06/04 02:19:42;;;;;;;0.03;0.03;;;;;;;;;;5095034;28;20097;-86
2022/06/04 02:22:09;;;;;;;0.00;0.00;;;;;;;;;;5062046;28;20048;-87
2022/06/04 02:24:35;;;;;;;0.10;0.10;;;;;;;;;;5080331;28;20040;-88
2022/06/04 02:27:01;;;;;;;0.00;0.00;;;;;;;;;;5075589;28;20134;-88
2022/06/04 02:29:28;;;;;;;0.00;0.00;;;;;;;;;;5095093;28;20044;-87
2022/06/04 02:32:00;;;;;;;0.10;0.10;;;;;;;;;;5099990;28;20044;-86
2022/06/04 02:34:41;;;;;;;0.00;0.00;;;;;;;;;;5076462;28;20040;-88
2022/06/04 02:37:19;;;;;;;0.20;0.20;;;;;;;;;;5099588;28;20510;-86
2022/06/04 02:39:46;;;;;;;0.08;0.08;;;;;;;;;;5073907;28;20052;-85
2022/06/04 02:42:22;;;;;;;0.10;0.10;;;;;;;;;;5072874;28;20069;-86
2022/06/04 02:44:51;;;;;;;0.10;0.10;;;;;;;;;;5076093;28;20123;-87
2022/06/04 02:47:23;;;;;;;0.00;0.00;;;;;;;;;;5090725;28;20080;-86
2022/06/04 02:50:00;;;;;;;0.00;0.00;;;;;;;;;;5103772;28;20050;-86
2022/06/04 02:52:27;;;;;;;0.00;0.00;;;;;;;;;;5075973;28;20048;-86
2022/06/04 02:54:59;;;;;;;0.10;0.10;;;;;;;;;;5067931;28;20047;-86
2022/06/04 02:57:26;;;;;;;0.00;0.00;;;;;;;;;;5073713;28;20070;-85
2022/06/04 02:59:53;;;;;;;0.10;0.10;;;;;;;;;;5088409;28;20097;-85
2022/06/04 03:02:20;;;;;;;0.10;0.10;;;;;;;;;;5072802;27;20521;-86
2022/06/04 03:04:49;;;;;;;0.00;0.00;;;;;;;;;;5068433;28;20056;-87
2022/06/04 03:07:16;;;;;;;0.10;0.10;;;;;;;;;;5072068;28;20489;-86
2022/06/04 03:09:44;;;;;;;0.10;0.10;;;;;;;;;;5080847;28;20077;-86
2022/06/04 03:12:12;;;;;;;0.20;0.20;;;;;;;;;;5090446;28;20058;-86
2022/06/04 03:14:38;;;;;;;0.03;0.03;;;;;;;;;;5099586;27;20082;-86
2022/06/04 03:17:06;;;;;;;0.10;0.10;;;;;;;;;;5070081;28;20084;-86
2022/06/04 03:19:32;;;;;;;0.10;0.10;;;;;;;;;;5075709;27;20587;-87
2022/06/04 03:22:00;;;;;;;0.10;0.10;;;;;;;;;;5057664;28;20040;-87
2022/06/04 03:24:26;;;;;;;0.00;0.00;;;;;;;;;;5083059;28;20043;-86
2022/06/04 03:26:53;;;;;;;0.10;0.10;;;;;;;;;;5084334;28;20047;-87
2022/06/04 03:29:19;;;;;;;0.08;0.08;;;;;;;;;;5089545;28;20040;-86
2022/06/04 03:31:45;;;;;;;0.10;0.10;;;;;;;;;;5054265;28;20044;-86
2022/06/04 03:34:12;;;;;;;0.10;0.10;;;;;;;;;;5073317;28;20486;-87
2022/06/04 03:36:39;;;;;;;0.00;0.00;;;;;;;;;;5086838;28;20055;-86
2022/06/04 03:39:06;;;;;;;0.10;0.10;;;;;;;;;;5080853;28;20047;-87
2022/06/04 03:41:32;;;;;;;0.10;0.10;;;;;;;;;;5089003;28;20506;-88
2022/06/04 03:43:59;;;;;;;0.10;0.10;;;;;;;;;;5084751;27;20035;-87
2022/06/04 03:46:26;;;;;;;0.20;0.20;;;;;;;;;;5042847;28;20062;-86
2022/06/04 03:48:56;;;;;;;0.00;0.00;;;;;;;;;;5081596;28;20055;-86
2022/06/04 03:51:22;;;;;;;0.10;0.10;;;;;;;;;;5081828;28;20040;-88
2022/06/04 03:53:49;;;;;;;0.10;0.10;;;;;;;;;;5084284;28;20036;-87
2022/06/04 03:56:15;;;;;;;0.00;0.00;;;;;;;;;;5096957;28;20048;-85
2022/06/04 03:58:41;;;;;;;0.10;0.10;;;;;;;;;;5081558;28;20043;-85
2022/06/04 04:01:13;;;;;;;0.00;0.00;;;;;;;;;;5062234;28;20144;-86
2022/06/04 04:03:40;;;;;;;0.00;0.00;;;;;;;;;;5069638;28;20047;-87
2022/06/04 04:06:06;;;;;;;0.10;0.10;;;;;;;;;;5065593;28;20555;-88
2022/06/04 04:08:32;;;;;;;0.10;0.10;;;;;;;;;;5066293;28;20076;-86
2022/06/04 04:10:58;;;;;;;0.10;0.10;;;;;;;;;;5090440;28;20040;-86
2022/06/04 04:13:24;;;;;;;0.00;0.00;;;;;;;;;;5074450;28;20497;-86
2022/06/04 04:15:51;;;;;;;0.10;0.10;;;;;;;;;;5093696;28;20044;-87
2022/06/04 04:18:17;;;;;;;0.10;0.10;;;;;;;;;;5066531;28;20505;-86
2022/06/04 04:20:48;;;;;;;0.10;0.10;;;;;;;;;;5081184;28;20040;-87
2022/06/04 04:23:14;;;;;;;0.10;0.10;;;;;;;;;;5085046;28;20040;-86
2022/06/04 04:25:40;;;;;;;0.00;0.00;;;;;;;;;;5076781;28;20097;-87
2022/06/04 04:28:07;;;;;;;0.10;0.10;;;;;;;;;;5113791;28;20058;-88
2022/06/04 04:30:34;;;;;;;0.10;0.10;;;;;;;;;;5078690;28;20128;-87
2022/06/04 04:33:01;;;;;;;0.00;0.00;;;;;;;;;;5068352;28;20043;-87
2022/06/04 04:35:28;;;;;;;0.10;0.10;;;;;;;;;;5066760;28;20035;-87
2022/06/04 04:37:55;;;;;;;0.38;0.30;;;;;;;;;;5067313;28;20090;-86
2022/06/04 04:40:21;;;;;;;0.15;0.15;;;;;;;;;;5066493;28;20063;-86
2022/06/04 04:42:48;;;;;;;0.00;0.00;;;;;;;;;;5095571;28;20302;-86
2022/06/04 04:45:14;;;;;;;0.00;0.00;;;;;;;;;;5085433;28;20127;-86
2022/06/04 04:47:42;;;;;;;0.10;0.10;;;;;;;;;;5081998;28;20052;-88
2022/06/04 04:50:11;;;;;;;0.00;0.00;;;;;;;;;;5068153;28;20086;-88
2022/06/04 04:52:37;;;;;;;0.10;0.10;;;;;;;;;;5065289;28;20074;-87
2022/06/04 04:55:03;;;;;;;0.15;0.15;;;;;;;;;;5081126;28;20134;-87
2022/06/04 04:57:29;;;;;;;0.10;0.10;;;;;;;;;;5081015;28;20239;-86
2022/06/04 04:59:56;;;;;;;0.10;0.10;;;;;;;;;;5079838;28;20336;-86
2022/06/04 05:02:22;;;;;;;0.10;0.10;;;;;;;;;;5074308;28;20048;-87
2022/06/04 05:04:48;;;;;;;0.10;0.10;;;;;;;;;;5083122;28;20147;-87
2022/06/04 05:07:14;;;;;;;0.98;0.40;;;;;;;;;;5080748;28;20092;-87
2022/06/04 05:09:40;;;;;;;0.00;0.00;;;;;;;;;;5067534;28;20059;-87
2022/06/04 05:12:10;;;;;;;0.52;0.52;;;;;;;;;;5087497;28;20040;-87
2022/06/04 05:14:36;;;;;;;0.08;0.08;;;;;;;;;;5085523;28;21008;-87
2022/06/04 05:17:03;;;;;;;0.43;0.43;;;;;;;;;;5073365;27;20066;-88
2022/06/04 05:19:29;;;;;;;0.10;0.10;;;;;;;;;;5102078;28;20033;-88
2022/06/04 05:21:55;;;;;;;0.15;0.15;;;;;;;;;;5086364;28;20452;-87
2022/06/04 05:24:26;;;;;;;0.10;0.10;;;;;;;;;;5062235;28;20448;-88
2022/06/04 05:26:53;;;;;;;0.10;0.10;;;;;;;;;;5081851;28;20424;-88
2022/06/04 05:29:19;;;;;;;0.80;0.50;;;;;;;;;;5062190;28;20424;-88
2022/06/04 05:31:46;;;;;;;0.10;0.10;;;;;;;;;;5078655;28;20434;-87
2022/06/04 05:34:13;;;;;;;0.10;0.10;;;;;;;;;;5074509;28;20420;-87
2022/06/04 05:36:39;;;;;;;0.10;0.10;;;;;;;;;;5064768;27;20517;-87
2022/06/04 05:39:07;;;;;;;0.13;0.13;;;;;;;;;;5069432;28;20504;-87
2022/06/04 05:41:33;;;;;;;0.30;0.30;;;;;;;;;;5085201;28;20497;-87
2022/06/04 05:43:59;;;;;;;0.00;0.00;;;;;;;;;;5071791;28;20424;-88
2022/06/04 05:46:26;;;;;;;0.10;0.10;;;;;;;;;;5066744;27;20423;-86
2022/06/04 05:48:52;;;;;;;0.10;0.10;;;;;;;;;;5081252;28;20487;-87
2022/06/04 05:51:23;;;;;;;0.10;0.10;;;;;;;;;;5066822;28;20817;-86
2022/06/04 05:53:49;;;;;;;0.10;0.10;;;;;;;;;;5076487;28;20481;-87
2022/06/04 05:56:20;;;;;;;2.40;0.40;;;;;;;;;;5096965;28;20420;-87
2022/06/04 05:58:46;;;;;;;;;;;;;;;;;;5084078;28;20434;-87
2022/06/04 06:01:12;;;;;;;;;;;;;;;;;;5094302;28;19984;-86
2022/06/04 06:03:38;;;;;;;;;;;;;;;;;;5084965;27;20003;-86
2022/06/04 06:06:04;;;;;;;;;;;;;;;;;;5078244;27;20378;-86
2022/06/04 06:08:30;;;;;;;;;;;;;;;;;;5116032;27;19946;-86
2022/06/04 06:10:57;;;;;;;;;;;;;;;;;;5117378;27;19926;-85
2022/06/04 06:13:23;;;;;;;;;;;;;;;;;;5099792;28;19920;-87
2022/06/04 06:15:49;;;;;;;;;;;;;;;;;;5087886;27;19927;-86
2022/06/04 06:18:15;;;;;;;;;;;;;;;;;;5086274;28;19965;-87
2022/06/04 06:20:41;;;;;;;;;;;;;;;;;;5096996;28;20282;-87
2022/06/04 06:23:07;;;;;;;;;;;;;;;;;;5085921;28;19920;-87
2022/06/04 06:25:33;;;;;;;;;;;;;;;;;;5096604;28;20014;-86
2022/06/04 06:27:59;;;;;;;;;;;;;;;;;;5072334;28;19923;-89
2022/06/04 06:30:25;;;;;;;;;;;;;;;;;;5082968;28;19973;-86
2022/06/04 06:32:51;;;;;;;;;;;;;;;;;;5078108;27;20313;-84
2022/06/04 06:35:17;;;;;;;;;;;;;;;;;;5096975;28;19924;-85
2022/06/04 06:37:43;;;;;;;;;;;;;;;;;;5095949;28;20438;-85
2022/06/04 06:40:09;;;;;;;;;;;;;;;;;;5101457;28;20057;-85
2022/06/04 06:42:35;;;;;;;;;;;;;;;;;;5092623;28;19928;-86
2022/06/04 06:45:01;;;;;;;;;;;;;;;;;;5093342;28;20355;-86
2022/06/04 06:47:27;;;;;;;;;;;;;;;;;;5065318;27;19928;-83
2022/06/04 06:49:53;;;;;;;;;;;;;;;;;;5089406;28;19920;-86
2022/06/04 06:52:20;;;;;;;;;;;;;;;;;;5079046;28;20282;-85
2022/06/04 06:54:46;;;;;;;;;;;;;;;;;;5091955;28;19920;-86
2022/06/04 06:57:12;;;;;;;;;;;;;;;;;;5081512;27;20269;-84
2022/06/04 06:59:43;;;;;;;;;;;;;;;;;;5101578;28;20323;-87
2022/06/04 07:02:09;;;;;;;;;;;;;;;;;;5086470;28;19969;-84
2022/06/04 07:04:35;;;;;;;;;;;;;;;;;;5088899;28;20324;-85
2022/06/04 07:07:01;;;;;;;;;;;;;;;;;;5096585;28;19942;-87
2022/06/04 07:09:27;;;;;;;;;;;;;;;;;;5088940;27;19919;-88
2022/06/04 07:11:53;;;;;;;;;;;;;;;;;;5079733;28;19920;-88
2022/06/04 07:14:19;;;;;;;;;;;;;;;;;;5101427;28;19951;-87
2022/06/04 07:16:45;;;;;;;;;;;;;;;;;;5103525;28;19999;-87
2022/06/04 07:19:10;;;;;;;;;;;;;;;;;;5090809;28;19927;-87
2022/06/04 07:21:36;;;;;;;;;;;;;;;;;;5087261;27;19971;-89
2022/06/04 07:24:02;;;;;;;;;;;;;;;;;;5121163;27;19920;-90
2022/06/04 07:26:28;;;;;;;;;;;;;;;;;;5075566;28;19924;-87
2022/06/04 07:28:54;;;;;;;;;;;;;;;;;;5065244;27;19923;-85
2022/06/04 07:31:20;;;;;;;;;;;;;;;;;;5097002;28;19957;-87
2022/06/04 07:33:46;;;;;;;;;;;;;;;;;;5071642;28;19927;-83
2022/06/04 07:36:12;;;;;;;;;;;;;;;;;;5104970;28;19920;-86
2022/06/04 07:38:38;;;;;;;;;;;;;;;;;;5079962;27;20008;-86
2022/06/04 07:41:04;;;;;;;;;;;;;;;;;;5095401;28;19981;-90
2022/06/04 07:43:30;;;;;;;;;;;;;;;;;;5073378;27;19931;-91
2022/06/04 07:45:56;;;;;;;;;;;;;;;;;;5092031;28;19993;-90
2022/06/04 07:48:22;;;;;;;;;;;;;;;;;;5090918;27;19999;-87
2022/06/04 07:50:48;;;;;;;;;;;;;;;;;;5089403;28;19920;-91
2022/06/04 07:53:14;;;;;;;;;;;;;;;;;;5112328;27;19919;-90
2022/06/04 07:55:40;;;;;;;;;;;;;;;;;;5104922;28;19973;-93
2022/06/04 07:58:06;;;;;;;;;;;;;;;;;;5081580;28;19934;-88
2022/06/04 08:00:37;;;;;;;;;;;;;;;;;;5099248;28;19920;-91
2022/06/04 08:03:03;;;;;;;;;;;;;;;;;;5065377;28;19969;-93
2022/06/04 08:05:29;;;;;;;;;;;;;;;;;;5084034;28;19932;-91
2022/06/04 08:07:55;;;;;;;;;;;;;;;;;;5078790;28;19924;-90
2022/06/04 08:10:20;;;;;;;;;;;;;;;;;;5106047;28;19920;-90
2022/06/04 08:13:02;;;;;;;;;;;;;;;;;;5077951;28;20303;-90
2022/06/04 08:15:28;;;;;;;;;;;;;;;;;;5095359;28;19924;-87
2022/06/04 08:17:54;;;;;;;;;;;;;;;;;;5080118;28;19944;-88
2022/06/04 08:20:21;;;;;;;;;;;;;;;;;;5078683;28;19924;-90
2022/06/04 08:22:47;;;;;;;;;;;;;;;;;;5056447;28;19928;-89
2022/06/04 08:25:13;;;;;;;;;;;;;;;;;;5117869;28;19920;-87
2022/06/04 08:27:39;;;;;;;;;;;;;;;;;;5108678;28;19920;-86
2022/06/04 08:30:05;;;;;;;;;;;;;;;;;;5094049;28;19919;-85
2022/06/04 08:32:32;;;;;;;;;;;;;;;;;;5083852;28;19919;-84
2022/06/04 08:34:58;;;;;;;;;;;;;;;;;;5071943;28;19945;-90
2022/06/04 08:37:24;;;;;;;;;;;;;;;;;;5115755;28;20363;-93
2022/06/04 08:39:50;;;;;;;;;;;;;;;;;;5110309;28;19967;-92
2022/06/04 08:42:16;;;;;;;;;;;;;;;;;;5090081;28;19953;-91
2022/06/04 08:44:42;;;;;;;;;;;;;;;;;;5094448;28;19924;-92
2022/06/04 08:47:08;;;;;;;;;;;;;;;;;;5065962;28;19958;-91
2022/06/04 08:49:34;;;;;;;;;;;;;;;;;;5100026;28;19919;-91
2022/06/04 08:52:00;;;;;;;;;;;;;;;;;;5101173;27;20030;-91
2022/06/04 08:59:55;;;;;;;;;;;;;;;;;;5114439;27;19986;-89
2022/06/04 09:02:21;;;;;;;;;;;;;;;;;;5085260;27;19931;-91
2022/06/04 09:04:47;;;;;;;;;;;;;;;;;;5086193;28;19924;-90
2022/06/04 09:07:13;;;;;;;;;;;;;;;;;;5117107;28;19926;-91
2022/06/04 09:09:39;;;;;;;;;;;;;;;;;;5110242;28;20287;-91
2022/06/04 09:12:05;;;;;;;;;;;;;;;;;;5075319;28;19924;-91
2022/06/04 09:14:31;;;;;;;;;;;;;;;;;;5110675;27;20421;-91
2022/06/04 09:16:57;;;;;;;;;;;;;;;;;;5088840;28;19946;-91
2022/06/04 09:19:23;;;;;;;;;;;;;;;;;;5108955;28;19924;-90
2022/06/04 09:21:49;;;;;;;;;;;;;;;;;;5079476;28;19960;-89
2022/06/04 09:24:15;;;;;;;;;;;;;;;;;;5120775;28;19931;-89
2022/06/04 09:26:42;;;;;;;;;;;;;;;;;;5095092;28;19946;-89
2022/06/04 09:29:08;;;;;;;;;;;;;;;;;;5095100;28;19920;-89
2022/06/04 09:31:34;;;;;;;;;;;;;;;;;;5111917;28;19965;-88
2022/06/04 09:34:00;;;;;;;;;;;;;;;;;;5096231;28;19920;-92
2022/06/04 09:36:26;;;;;;;;;;;;;;;;;;5093849;28;19919;-90
2022/06/04 09:38:52;;;;;;;;;;;;;;;;;;5097976;27;19919;-88
2022/06/04 09:41:21;;;;;;;;;;;;;;;;;;5110214;28;19969;-88
2022/06/04 09:43:47;;;;;;;;;;;;;;;;;;5117330;28;19919;-87
2022/06/04 09:46:13;;;;;;;;;;;;;;;;;;5113822;28;19959;-90
2022/06/04 09:48:39;;;;;;;;;;;;;;;;;;5123239;28;19920;-90
2022/06/04 09:51:08;;;;;;;;;;;;;;;;;;5071784;28;19941;-89
2022/06/04 09:53:33;;;;;;;;;;;;;;;;;;5092458;27;19919;-88
2022/06/04 09:55:59;;;;;;;;;;;;;;;;;;5125492;27;19998;-89
2022/06/04 09:58:26;;;;;;;;;;;;;;;;;;5101092;27;19919;-89
2022/06/04 10:00:52;;;;;;;;;;;;;;;;;;5096443;28;19979;-88
2022/06/04 10:03:18;;;;;;;;;;;;;;;;;;5102208;27;20346;-89
2022/06/04 10:05:44;;;;;;;;;;;;;;;;;;5101016;28;20895;-89
2022/06/04 10:08:10;;;;;;;;;;;;;;;;;;5079636;28;19946;-88
2022/06/04 10:10:37;;;;;;;;;;;;;;;;;;5129509;27;19920;-91
2022/06/04 10:15:48;;;;;;;;;;;;;;;;;;5130768;28;19943;-89
2022/06/04 10:18:18;;;;;;;;;;;;;;;;;;5134049;27;19979;-89
2022/06/04 10:20:44;;;;;;;;;;;;;;;;;;5105188;28;19920;-90
2022/06/04 10:23:10;;;;;;;;;;;;;;;;;;5110986;28;19941;-90
2022/06/04 10:25:36;;;;;;;;;;;;;;;;;;5127046;28;19928;-90
2022/06/04 10:28:02;;;;;;;;;;;;;;;;;;5095592;28;19925;-89
2022/06/04 10:30:28;;;;;;;;;;;;;;;;;;5113426;28;20030;-89
2022/06/04 10:32:54;;;;;;;;;;;;;;;;;;5107697;28;20124;-90
2022/06/04 10:35:20;;;;;;;;;;;;;;;;;;5103097;28;19928;-88
2022/06/04 10:37:46;;;;;;;;;;;;;;;;;;5090446;28;19920;-88
2022/06/04 10:40:12;;;;;;;;;;;;;;;;;;5103984;28;19946;-89
2022/06/04 10:42:38;;;;;;;;;;;;;;;;;;5105849;28;19948;-89
2022/06/04 10:45:04;;;;;;;;;;;;;;;;;;5110116;28;19972;-89
2022/06/04 10:47:30;;;;;;;;;;;;;;;;;;5093595;28;19990;-89
2022/06/04 10:49:56;;;;;;;;;;;;;;;;;;5095631;28;19920;-88
2022/06/04 10:52:22;;;;;;;;;;;;;;;;;;5086420;28;19920;-90
2022/06/04 10:54:48;;;;;;;;;;;;;;;;;;5102905;28;19973;-88
2022/06/04 10:57:14;;;;;;;;;;;;;;;;;;5109197;28;20188;-88
2022/06/04 10:59:44;;;;;;;;;;;;;;;;;;5106849;28;20526;-91
2022/06/04 11:02:10;;;;;;;;;;;;;;;;;;5103380;28;19931;-89
2022/06/04 11:04:36;;;;;;;;;;;;;;;;;;5128010;27;19931;-90
2022/06/04 11:07:02;;;;;;;;;;;;;;;;;;5092380;28;19924;-89
2022/06/04 11:09:28;;;;;;;;;;;;;;;;;;5073110;28;19924;-90
2022/06/04 11:11:54;;;;;;;;;;;;;;;;;;5072467;28;19924;-90
2022/06/04 11:14:20;;;;;;;;;;;;;;;;;;5125609;27;19923;-89
2022/06/04 11:16:46;;;;;;;;;;;;;;;;;;5109301;28;19974;-90
2022/06/04 11:19:12;;;;;;;;;;;;;;;;;;5094539;27;19932;-89
2022/06/04 11:21:38;;;;;;;;;;;;;;;;;;5092254;28;19959;-91
2022/06/04 11:24:04;;;;;;;;;;;;;;;;;;5135429;27;19980;-91
2022/06/04 11:26:30;;;;;;;;;;;;;;;;;;5112532;28;19924;-90
2022/06/04 11:28:56;;;;;;;;;;;;;;;;;;5091444;28;19924;-92
2022/06/04 11:31:22;;;;;;;;;;;;;;;;;;5123167;28;19934;-90
2022/06/04 11:33:47;;;;;;;;;;;;;;;;;;5128312;27;19927;-89
2022/06/04 11:36:13;;;;;;;;;;;;;;;;;;5098898;28;19924;-91
2022/06/04 11:38:39;;;;;;;;;;;;;;;;;;5129128;28;19965;-90
2022/06/04 11:41:05;;;;;;;;;;;;;;;;;;5111923;28;19927;-90
2022/06/04 11:43:31;;;;;;;;;;;;;;;;;;5110136;28;20014;-90
2022/06/04 11:45:57;;;;;;;;;;;;;;;;;;5088954;28;19946;-93
2022/06/04 11:48:23;;;;;;;;;;;;;;;;;;5086930;28;19984;-91
2022/06/04 11:50:49;;;;;;;;;;;;;;;;;;5085435;28;19924;-91
2022/06/04 11:53:15;;;;;;;;;;;;;;;;;;5117992;28;19928;-91
2022/06/04 11:55:43;;;;;;;;;;;;;;;;;;5139054;27;19942;-91
2022/06/04 11:58:09;;;;;;;;;;;;;;;;;;5112610;28;20183;-90
2022/06/04 12:00:36;;;;;;;;;;;;;;;;;;5077127;28;19971;-89
2022/06/04 12:03:02;;;;;;;;;;;;;;;;;;5097423;28;19931;-91
2022/06/04 12:05:29;;;;;;;;;;;;;;;;;;5104282;28;19924;-90
2022/06/04 12:07:55;;;;;;;;;;;;;;;;;;5081265;28;19932;-91
2022/06/04 12:10:21;;;;;;;;;;;;;;;;;;5108398;28;19934;-92
2022/06/04 12:12:48;;;;;;;;;;;;;;;;;;5124443;28;19971;-91
2022/06/04 12:15:18;;;;;;;;;;;;;;;;;;5112306;28;19950;-92
2022/06/04 12:17:43;;;;;;;;;;;;;;;;;;5097218;28;19963;-90
2022/06/04 12:25:39;;;;;;;;;;;;;;;;;;5117184;27;20401;-91
2022/06/04 12:28:05;;;;;;;;;;;;;;;;;;5115122;28;19928;-91
2022/06/04 12:30:31;;;;;;;;;;;;;;;;;;5091487;27;19994;-92
2022/06/04 12:32:57;;;;;;;;;;;;;;;;;;5099942;28;20367;-93
2022/06/04 12:35:23;;;;;;;;;;;;;;;;;;5132096;27;19924;-92
2022/06/04 12:37:49;;;;;;;;;;;;;;;;;;5114074;28;19924;-92
2022/06/04 12:40:15;;;;;;;;;;;;;;;;;;5139908;27;19942;-90
2022/06/04 12:42:41;;;;;;;;;;;;;;;;;;5119157;28;20007;-91
2022/06/04 12:45:07;;;;;;;;;;;;;;;;;;5098589;28;20102;-91
2022/06/04 12:47:33;;;;;;;;;;;;;;;;;;5145725;27;19958;-91
2022/06/04 12:49:59;;;;;;;;;;;;;;;;;;5098676;28;19924;-91
2022/06/04 12:52:25;;;;;;;;;;;;;;;;;;5129250;28;19927;-91
2022/06/04 12:54:51;;;;;;;;;;;;;;;;;;5109844;28;20018;-88
2022/06/04 12:57:17;;;;;;;;;;;;;;;;;;5143104;27;19924;-89
2022/06/04 12:59:43;;;;;;;;;;;;;;;;;;5120953;28;19949;-91
2022/06/04 13:02:09;;;;;;;;;;;;;;;;;;5129464;27;19924;-89
2022/06/04 13:04:35;;;;;;;;;;;;;;;;;;5103473;28;19920;-90
2022/06/04 13:07:01;;;;;;;;;;;;;;;;;;5121381;28;19926;-90
2022/06/04 13:09:27;;;;;;;;;;;;;;;;;;5095437;28;19931;-91
2022/06/04 13:11:54;;;;;;;;;;;;;;;;;;5116082;28;19931;-88
2022/06/04 13:14:20;;;;;;;;;;;;;;;;;;5121306;28;19931;-90
2022/06/04 13:16:46;;;;;;;;;;;;;;;;;;5129392;28;20378;-90
2022/06/04 13:19:12;;;;;;;;;;;;;;;;;;5116938;27;19946;-89
2022/06/04 13:21:38;;;;;;;;;;;;;;;;;;5117914;28;19967;-89
2022/06/04 13:24:04;;;;;;;;;;;;;;;;;;5117908;28;19930;-91
2022/06/04 13:26:31;;;;;;;;;;;;;;;;;;5114608;28;19928;-91
2022/06/04 13:28:57;;;;;;;;;;;;;;;;;;5126298;28;19944;-91
2022/06/04 13:31:23;;;;;;;;;;;;;;;;;;5137975;27;19927;-90
2022/06/04 13:33:49;;;;;;;;;;;;;;;;;;5128445;28;19924;-90
2022/06/04 13:36:15;;;;;;;;;;;;;;;;;;5120983;27;19927;-90
2022/06/04 13:38:41;;;;;;;;;;;;;;;;;;5105899;28;19931;-90
2022/06/04 13:41:07;;;;;;;;;;;;;;;;;;5131842;27;19924;-90
2022/06/04 13:43:33;;;;;;;;;;;;;;;;;;5116074;28;19928;-89
2022/06/04 13:45:59;;;;;;;;;;;;;;;;;;5087580;28;19931;-90
2022/06/04 13:48:25;;;;;;;;;;;;;;;;;;5127124;27;19955;-91
2022/06/04 13:50:51;;;;;;;;;;;;;;;;;;5095363;28;19983;-89
2022/06/04 13:53:17;;;;;;;;;;;;;;;;;;5098250;28;19995;-84
2022/06/04 13:55:45;;;;;;;;;;;;;;;;;;5102727;28;19953;-88
2022/06/04 13:58:11;;;;;;;;;;;;;;;;;;5103995;28;19962;-90
2022/06/04 14:00:37;;;;;;;;;;;;;;;;;;5118693;28;19924;-89
2022/06/04 14:03:03;;;;;;;;;;;;;;;;;;5107067;27;19927;-89
2022/06/04 14:05:44;;;;;;;;;;;;;;;;;;5082969;28;20000;-88
2022/06/04 14:08:10;;;;;;;;;;;;;;;;;;5112387;28;19924;-91
2022/06/04 14:10:36;;;;;;;;;;;;;;;;;;5108816;28;19924;-88
2022/06/04 14:13:03;;;;;;;;;;;;;;;;;;5080084;28;19923;-86
2022/06/04 14:15:29;;;;;;;;;;;;;;;;;;5074751;28;19957;-86
2022/06/04 14:17:55;;;;;;;;;;;;;;;;;;5105337;28;19981;-84
2022/06/04 14:20:22;;;;;;;;;;;;;;;;;;5095002;28;19927;-86
2022/06/04 14:22:48;;;;;;;;;;;;;;;;;;5080787;28;20259;-88
2022/06/04 14:25:14;;;;;;;;;;;;;;;;;;5091902;28;19928;-85
2022/06/04 14:27:40;;;;;;;;;;;;;;;;;;5078633;28;19940;-85
2022/06/04 14:30:06;;;;;;;;;;;;;;;;;;5084066;28;19922;-86
2022/06/04 14:32:32;;;;;;;;;;;;;;;;;;5083052;28;19923;-87
2022/06/04 14:34:58;;;;;;;;;;;;;;;;;;5096067;28;19928;-90
2022/06/04 14:37:24;;;;;;;;;;;;;;;;;;5102362;28;19991;-89
2022/06/04 14:39:50;;;;;;;;;;;;;;;;;;5094151;28;19924;-88
2022/06/04 14:42:16;;;;;;;;;;;;;;;;;;5081097;28;19930;-86
2022/06/04 14:44:42;;;;;;;;;;;;;;;;;;5075608;28;19927;-83
2022/06/04 14:47:08;;;;;;;;;;;;;;;;;;5073428;27;19958;-84
2022/06/04 14:49:33;;;;;;;;;;;;;;;;;;5104554;28;19969;-84
2022/06/04 14:51:59;;;;;;;;;;;;;;;;;;5091940;27;19971;-85
2022/06/04 14:54:25;;;;;;;;;;;;;;;;;;5105170;28;19932;-88
2022/06/04 14:56:51;;;;;;;;;;;;;;;;;;5077206;28;21217;-86
2022/06/04 14:59:18;;;;;;;;;;;;;;;;;;5096008;28;19927;-86
2022/06/04 15:01:44;;;;;;;;;;;;;;;;;;5125872;27;19924;-85
2022/06/04 15:04:13;;;;;;;;;;;;;;;;;;5078752;28;19938;-88
2022/06/04 15:06:39;;;;;;;;;;;;;;;;;;5080440;27;19924;-87
2022/06/04 15:09:05;;;;;;;;;;;;;;;;;;5097183;27;20369;-88
2022/06/04 15:11:37;;;;;;;;;;;;;;;;;;5113863;28;19939;-87
2022/06/04 15:14:03;;;;;;;;;;;;;;;;;;5078437;28;19932;-86
2022/06/04 15:16:29;;;;;;;;;;;;;;;;;;5078703;28;19969;-87
2022/06/04 15:18:55;;;;;;;;;;;;;;;;;;5094627;28;19967;-87
2022/06/04 15:21:21;;;;;;;;;;;;;;;;;;5076327;28;20595;-86
2022/06/04 15:23:47;;;;;;;;;;;;;;;;;;5091392;28;19928;-86
2022/06/04 15:26:13;;;;;;;;;;;;;;;;;;5090676;28;19931;-88
2022/06/04 15:34:08;;;;;;;;;;;;;;;;;;5092070;28;20401;-88
2022/06/04 15:36:34;;;;;;;;;;;;;;;;;;5093674;27;19973;-87
2022/06/04 15:39:00;;;;;;;;;;;;;;;;;;5076804;28;19928;-87
2022/06/04 15:41:26;;;;;;;;;;;;;;;;;;5077204;28;19931;-87
2022/06/04 15:43:52;;;;;;;;;;;;;;;;;;5098486;28;20505;-88
2022/06/04 15:46:18;;;;;;;;;;;;;;;;;;5099830;28;19924;-88
2022/06/04 15:48:44;;;;;;;;;;;;;;;;;;5076978;28;19923;-87
2022/06/04 15:56:39;;;;;;;;;;;;;;;;;;5128052;27;19928;-89
2022/06/04 15:59:05;;;;;;;;;;;;;;;;;;5084185;28;19980;-90
2022/06/04 16:01:34;;;;;;;;;;;;;;;;;;5082879;28;19924;-88
2022/06/04 16:04:00;;;;;;;;;;;;;;;;;;5086766;28;20317;-89
2022/06/04 16:06:26;;;;;;;;;;;;;;;;;;5077342;28;19924;-88
2022/06/04 16:08:52;;;;;;;;;;;;;;;;;;5088896;28;20366;-88
2022/06/04 16:11:18;;;;;;;;;;;;;;;;;;5093317;28;20267;-88
2022/06/04 16:13:44;;;;;;;;;;;;;;;;;;5084973;28;19924;-86
2022/06/04 16:16:12;;;;;;;;;;;;;;;;;;5073689;28;19931;-88
2022/06/04 16:18:38;;;;;;;;;;;;;;;;;;5091254;28;19973;-89
2022/06/04 16:21:04;;;;;;;;;;;;;;;;;;5080428;28;19974;-88
2022/06/04 16:23:30;;;;;;;;;;;;;;;;;;5074255;28;19929;-88
2022/06/04 16:25:56;;;;;;;;;;;;;;;;;;5076880;28;19931;-89
2022/06/04 16:28:22;;;;;;;;;;;;;;;;;;5080844;28;19946;-87